createdAt,value
2023-04-08T00:01:40.287Z,7.69
2023-04-08T00:04:42.493Z,6.74
2023-04-08T00:07:44.565Z,5.97
2023-04-08T00:10:46.434Z,6.39
2023-04-08T00:13:48.383Z,7.21
2023-04-08T00:16:50.339Z,7.49
2023-04-08T00:19:52.297Z,7.86
2023-04-08T00:22:54.403Z,7.53
2023-04-08T00:25:56.244Z,6.30
2023-04-08T00:28:58.208Z,6.34
2023-04-08T00:32:00.207Z,6.43
2023-04-08T00:35:02.688Z,6.70
2023-04-08T00:38:08.134Z,6.26
2023-04-08T00:41:09.968Z,6.61
2023-04-08T00:44:11.862Z,5.90
2023-04-08T00:47:14.271Z,5.63
2023-04-08T00:50:16.224Z,5.49
2023-04-08T00:53:18.726Z,5.78
2023-04-08T00:56:21.577Z,5.88
2023-04-08T00:59:23.544Z,6.11
2023-04-08T01:02:27.502Z,6.27
2023-04-08T01:05:56.404Z,5.82
2023-04-08T01:08:59.621Z,6.12
2023-04-08T01:12:02.821Z,5.78
2023-04-08T01:15:08.317Z,5.75
2023-04-08T01:18:11.765Z,6.22
2023-04-08T01:21:13.614Z,5.72
2023-04-08T01:24:20.664Z,6.12
2023-04-08T01:27:22.520Z,6.80
2023-04-08T01:30:25.294Z,5.75
2023-04-08T01:33:27.323Z,5.89
2023-04-08T01:36:29.261Z,6.38
2023-04-08T01:39:31.287Z,6.30
2023-04-08T01:42:33.424Z,6.11
2023-04-08T01:45:35.289Z,6.59
2023-04-08T01:48:37.600Z,6.09
2023-04-08T01:51:39.481Z,6.06
2023-04-08T01:54:41.342Z,5.70
2023-04-08T01:57:44.643Z,6.02
2023-04-08T02:00:46.493Z,6.05
2023-04-08T02:03:48.365Z,6.05
2023-04-08T02:06:50.231Z,6.53
2023-04-08T02:09:52.309Z,6.36
2023-04-08T02:12:55.272Z,6.08
2023-04-08T02:15:57.949Z,5.89
2023-04-08T02:19:01.177Z,5.75
2023-04-08T02:22:06.436Z,5.45
2023-04-08T02:25:08.620Z,5.59
2023-04-08T02:28:11.296Z,5.24
2023-04-08T02:31:16.251Z,5.44
2023-04-08T02:34:18.492Z,5.31
2023-04-08T02:37:20.342Z,5.74
2023-04-08T02:40:26.304Z,5.23
2023-04-08T02:43:32.481Z,5.45
2023-04-08T02:46:34.446Z,5.71
2023-04-08T02:49:36.288Z,5.93
2023-04-08T02:52:38.143Z,6.26
2023-04-08T02:55:40.189Z,6.40
2023-04-08T02:58:42.060Z,6.99
2023-04-08T03:01:44.043Z,5.96
2023-04-08T03:04:45.900Z,5.59
2023-04-08T03:07:47.920Z,5.42
2023-04-08T03:10:50.084Z,5.32
2023-04-08T03:13:51.974Z,5.27
2023-04-08T03:16:53.963Z,5.28
2023-04-08T03:19:55.940Z,5.02
2023-04-08T03:22:58.043Z,5.45
2023-04-08T03:26:00.210Z,5.23
2023-04-08T03:29:02.192Z,5.87
2023-04-08T03:32:04.553Z,5.79
2023-04-08T03:35:06.656Z,6.26
2023-04-08T03:38:08.725Z,5.90
2023-04-08T03:41:10.614Z,5.42
2023-04-08T03:44:12.708Z,5.58
2023-04-08T03:47:14.531Z,5.74
2023-04-08T03:50:16.366Z,6.06
2023-04-08T03:53:18.307Z,5.66
2023-04-08T03:56:20.747Z,5.93
2023-04-08T03:59:23.219Z,5.14
2023-04-08T04:02:25.174Z,6.21
2023-04-08T04:05:27.204Z,5.86
2023-04-08T04:08:29.023Z,5.39
2023-04-08T04:11:30.953Z,5.78
2023-04-08T04:14:32.861Z,5.56
2023-04-08T04:17:35.061Z,5.99
2023-04-08T04:20:40.266Z,5.11
2023-04-08T04:23:42.132Z,5.16
2023-04-08T04:26:43.982Z,4.71
2023-04-08T04:29:45.927Z,5.09
2023-04-08T04:32:47.912Z,4.44
2023-04-08T04:35:49.924Z,5.18
2023-04-08T04:38:52.026Z,5.47
2023-04-08T04:41:54.528Z,4.99
2023-04-08T04:44:56.401Z,4.98
2023-04-08T04:47:58.225Z,5.60
2023-04-08T04:51:01.330Z,5.72
2023-04-08T04:54:03.267Z,5.57
2023-04-08T04:57:05.317Z,5.76
2023-04-08T05:00:08.424Z,5.55
2023-04-08T05:03:10.583Z,6.10
2023-04-08T05:06:12.633Z,5.06
2023-04-08T05:09:14.580Z,6.05
2023-04-08T05:12:16.547Z,6.39
2023-04-08T05:15:18.382Z,5.47
2023-04-08T05:18:20.538Z,5.71
2023-04-08T05:21:22.437Z,5.30
2023-04-08T05:24:24.383Z,5.10
2023-04-08T05:27:26.376Z,5.36
2023-04-08T05:30:28.336Z,5.50
2023-04-08T05:33:30.565Z,5.66
2023-04-08T05:36:32.446Z,5.13
2023-04-08T05:39:34.286Z,5.66
2023-04-08T05:42:36.420Z,5.81
2023-04-08T05:45:38.368Z,5.77
2023-04-08T05:48:40.345Z,6.30
2023-04-08T05:51:42.274Z,6.36
2023-04-08T05:54:44.484Z,5.82
2023-04-08T05:57:46.436Z,5.89
2023-04-08T06:00:48.281Z,6.06
2023-04-08T06:03:50.483Z,6.75
2023-04-08T06:06:52.630Z,6.59
2023-04-08T06:09:54.826Z,5.94
2023-04-08T06:12:56.789Z,7.04
2023-04-08T06:15:58.791Z,7.28
2023-04-08T06:19:00.711Z,5.60
2023-04-08T06:22:02.645Z,6.32
2023-04-08T06:25:04.576Z,6.36
2023-04-08T06:28:06.433Z,5.74
2023-04-08T06:31:08.400Z,6.23
2023-04-08T06:34:10.465Z,6.45
2023-04-08T06:37:12.358Z,6.05
2023-04-08T06:40:14.659Z,6.34
2023-04-08T06:43:16.621Z,6.54
2023-04-08T06:46:18.525Z,6.26
2023-04-08T06:49:20.633Z,7.38
2023-04-08T06:52:22.617Z,6.69
2023-04-08T06:55:24.421Z,5.68
2023-04-08T06:58:26.409Z,5.93
2023-04-08T07:01:28.377Z,7.09
2023-04-08T07:04:30.381Z,6.90
2023-04-08T07:07:32.799Z,6.16
2023-04-08T07:10:35.173Z,6.73
2023-04-08T07:13:37.302Z,6.86
2023-04-08T07:16:39.357Z,5.82
2023-04-08T07:19:41.229Z,6.65
2023-04-08T07:22:43.065Z,6.19
2023-04-08T07:25:44.973Z,6.39
2023-04-08T07:28:47.124Z,6.76
2023-04-08T07:31:49.349Z,6.46
2023-04-08T07:34:51.355Z,6.63
2023-04-08T07:37:53.739Z,7.19
2023-04-08T07:40:55.975Z,5.83
2023-04-08T07:43:57.996Z,6.32
2023-04-08T07:46:59.944Z,6.29
2023-04-08T07:50:02.052Z,6.02
2023-04-08T07:53:03.997Z,7.01
2023-04-08T07:56:12.591Z,6.10
2023-04-08T07:59:14.860Z,7.02
2023-04-08T08:02:16.935Z,6.22
2023-04-08T08:05:19.011Z,6.78
2023-04-08T08:08:20.939Z,6.83
2023-04-08T08:11:22.804Z,6.29
2023-04-08T08:14:26.729Z,5.69
2023-04-08T08:17:30.986Z,6.20
2023-04-08T08:20:32.829Z,6.20
2023-04-08T08:23:34.851Z,6.83
2023-04-08T08:26:39.680Z,6.77
2023-04-08T08:29:41.808Z,6.86
2023-04-08T08:32:43.862Z,6.09
2023-04-08T08:35:45.892Z,7.18
2023-04-08T08:38:47.964Z,6.00
2023-04-08T08:41:49.981Z,6.22
2023-04-08T08:44:52.027Z,7.37
2023-04-08T08:47:54.004Z,6.38
2023-04-08T08:50:56.455Z,7.58
2023-04-08T08:54:00.361Z,7.55
2023-04-08T08:57:02.292Z,7.39
2023-04-08T09:00:04.263Z,6.89
2023-04-08T09:03:22.993Z,6.74
2023-04-08T09:06:26.493Z,6.32
2023-04-08T09:09:28.318Z,6.37
2023-04-08T09:12:31.451Z,6.69
2023-04-08T09:15:33.392Z,6.91
2023-04-08T09:18:36.307Z,7.77
2023-04-08T09:21:38.629Z,6.93
2023-04-08T09:24:41.040Z,6.49
2023-04-08T09:27:42.838Z,5.94
2023-04-08T09:30:44.812Z,6.68
2023-04-08T09:33:48.471Z,7.09
2023-04-08T09:36:50.911Z,7.05
2023-04-08T09:39:53.184Z,7.32
2023-04-08T09:42:56.293Z,7.90
2023-04-08T09:45:58.645Z,7.67
2023-04-08T09:49:07.825Z,7.93
2023-04-08T09:52:24.921Z,6.97
2023-04-08T09:55:27.682Z,7.11
2023-04-08T09:58:29.993Z,7.06
2023-04-08T10:01:39.576Z,7.93
2023-04-08T10:04:42.386Z,8.85
2023-04-08T10:07:44.313Z,7.11
2023-04-08T10:10:47.771Z,7.60
2023-04-08T10:13:50.154Z,7.09
2023-04-08T10:16:52.223Z,7.00
2023-04-08T10:19:54.567Z,7.28
2023-04-08T10:22:56.463Z,7.50
2023-04-08T10:25:58.288Z,7.24
2023-04-08T10:29:29.403Z,6.95
2023-04-08T10:32:31.680Z,7.63
2023-04-08T10:35:35.277Z,7.52
2023-04-08T10:38:38.026Z,7.76
2023-04-08T10:41:43.648Z,7.53
2023-04-08T10:44:46.416Z,7.97
2023-04-08T10:47:48.352Z,7.55
2023-04-08T10:50:59.703Z,8.47
2023-04-08T10:54:11.964Z,7.17
2023-04-08T10:57:13.877Z,6.94
2023-04-08T11:00:19.229Z,8.17
2023-04-08T11:03:21.359Z,7.70
2023-04-08T11:06:24.847Z,7.37
2023-04-08T11:09:27.118Z,8.07
2023-04-08T11:12:28.931Z,8.12
2023-04-08T11:15:31.231Z,7.51
2023-04-08T11:18:34.561Z,8.03
2023-04-08T11:21:37.628Z,8.61
2023-04-08T11:24:39.470Z,8.38
2023-04-08T11:27:41.363Z,8.68
2023-04-08T11:30:43.463Z,8.69
2023-04-08T11:33:48.982Z,9.25
2023-04-08T11:36:51.399Z,8.63
2023-04-08T11:39:54.781Z,8.82
2023-04-08T11:42:56.644Z,7.97
2023-04-08T11:45:58.450Z,8.54
2023-04-08T11:49:07.594Z,7.71
2023-04-08T11:52:09.457Z,8.40
2023-04-08T11:55:12.712Z,8.01
2023-04-08T11:58:14.779Z,8.95
2023-04-08T12:01:16.704Z,8.26
2023-04-08T12:04:18.802Z,9.33
2023-04-08T12:07:20.876Z,8.78
2023-04-08T12:10:23.012Z,8.40
2023-04-08T12:13:27.181Z,8.26
2023-04-08T12:16:29.395Z,8.67
2023-04-08T12:19:33.421Z,8.57
2023-04-08T12:22:35.841Z,7.81
2023-04-08T12:25:37.652Z,7.15
2023-04-08T12:28:39.752Z,9.05
2023-04-08T12:31:41.769Z,9.17
2023-04-08T12:34:43.704Z,9.08
2023-04-08T12:37:45.784Z,8.57
2023-04-08T12:40:49.154Z,8.96
2023-04-08T12:43:52.228Z,9.22
2023-04-08T12:46:54.870Z,9.13
2023-04-08T12:49:56.742Z,10.01
2023-04-08T12:52:58.610Z,9.64
2023-04-08T12:56:00.561Z,9.73
2023-04-08T12:59:02.509Z,10.57
2023-04-08T13:02:04.491Z,10.15
2023-04-08T13:05:06.541Z,10.10
2023-04-08T13:08:08.439Z,10.36
2023-04-08T13:11:10.541Z,8.98
2023-04-08T13:14:13.941Z,8.81
2023-04-08T13:17:16.154Z,8.83
2023-04-08T13:20:17.941Z,8.91
2023-04-08T13:23:19.935Z,9.02
2023-04-08T13:26:22.168Z,8.72
2023-04-08T13:29:24.095Z,9.90
2023-04-08T13:32:26.175Z,7.68
2023-04-08T13:35:28.007Z,9.03
2023-04-08T13:38:29.943Z,9.43
2023-04-08T13:41:31.761Z,9.98
2023-04-08T13:44:33.722Z,8.94
2023-04-08T13:47:37.925Z,9.53
2023-04-08T13:50:41.848Z,8.13
2023-04-08T13:53:43.742Z,8.86
2023-04-08T13:56:45.853Z,9.18
2023-04-08T13:59:48.107Z,9.25
2023-04-08T14:02:51.046Z,10.09
2023-04-08T14:05:53.834Z,10.05
2023-04-08T14:08:55.963Z,8.59
2023-04-08T14:11:58.921Z,8.98
2023-04-08T14:15:00.849Z,9.00
2023-04-08T14:18:02.827Z,8.58
2023-04-08T14:21:05.502Z,9.64
2023-04-08T14:24:07.509Z,8.95
2023-04-08T14:27:09.408Z,9.41
2023-04-08T14:30:11.341Z,9.13
2023-04-08T14:33:13.537Z,9.33
2023-04-08T14:36:15.506Z,8.61
2023-04-08T14:39:17.427Z,9.03
2023-04-08T14:42:19.323Z,8.80
2023-04-08T14:45:21.923Z,9.84
2023-04-08T14:48:26.470Z,9.14
2023-04-08T14:51:28.345Z,7.85
2023-04-08T14:54:30.608Z,9.61
2023-04-08T14:57:32.463Z,9.30
2023-04-08T15:00:34.366Z,9.61
2023-04-08T15:03:36.475Z,9.63
2023-04-08T15:06:40.452Z,9.30
2023-04-08T15:09:42.623Z,9.60
2023-04-08T15:12:44.557Z,9.97
2023-04-08T15:15:46.551Z,9.13
2023-04-08T15:18:48.881Z,9.94
2023-04-08T15:21:50.829Z,10.14
2023-04-08T15:24:52.963Z,9.56
2023-04-08T15:27:54.825Z,9.26
2023-04-08T15:30:56.700Z,9.65
2023-04-08T15:33:58.750Z,9.61
2023-04-08T15:37:02.447Z,10.00
2023-04-08T15:40:04.446Z,8.50
2023-04-08T15:43:10.032Z,9.49
2023-04-08T15:46:11.985Z,9.05
2023-04-08T15:49:13.879Z,9.65
2023-04-08T15:52:16.796Z,9.47
2023-04-08T15:55:18.650Z,9.98
2023-04-08T15:58:20.492Z,8.94
2023-04-08T16:01:22.496Z,10.27
2023-04-08T16:04:24.485Z,9.38
2023-04-08T16:07:26.623Z,10.23
2023-04-08T16:10:28.600Z,10.02
2023-04-08T16:13:31.077Z,9.55
2023-04-08T16:16:33.191Z,7.97
2023-04-08T16:19:35.147Z,8.39
2023-04-08T16:22:37.026Z,7.82
2023-04-08T16:25:39.040Z,7.21
2023-04-08T16:28:40.920Z,7.42
2023-04-08T16:31:43.358Z,8.24
2023-04-08T16:34:45.324Z,7.26
2023-04-08T16:37:47.128Z,7.48
2023-04-08T16:40:49.051Z,6.94
2023-04-08T16:43:51.265Z,7.17
2023-04-08T16:46:53.269Z,8.10
2023-04-08T16:49:55.463Z,7.83
2023-04-08T16:52:57.579Z,7.05
2023-04-08T16:55:59.579Z,7.27
2023-04-08T16:59:01.383Z,7.02
2023-04-08T17:02:03.608Z,7.43
2023-04-08T17:05:06.476Z,7.90
2023-04-08T17:08:08.416Z,8.19
2023-04-08T17:11:11.467Z,8.75
2023-04-08T17:14:14.027Z,8.70
2023-04-08T17:17:16.120Z,8.67
2023-04-08T17:20:18.006Z,8.84
2023-04-08T17:23:19.905Z,7.94
2023-04-08T17:26:23.496Z,8.49
2023-04-08T17:29:25.567Z,8.38
2023-04-08T17:32:27.667Z,7.40
2023-04-08T17:35:29.858Z,8.02
2023-04-08T17:38:32.332Z,8.52
2023-04-08T17:41:40.323Z,7.67
2023-04-08T17:44:44.843Z,7.76
2023-04-08T17:47:46.731Z,7.69
2023-04-08T17:50:48.614Z,8.28
2023-04-08T17:53:50.960Z,7.36
2023-04-08T17:56:53.548Z,7.93
2023-04-08T17:59:55.419Z,8.80
2023-04-08T18:02:57.520Z,7.35
2023-04-08T18:05:59.511Z,7.72
2023-04-08T18:09:03.623Z,7.30
2023-04-08T18:12:06.451Z,7.36
2023-04-08T18:15:08.668Z,6.59
2023-04-08T18:18:10.685Z,7.35
2023-04-08T18:21:12.762Z,7.17
2023-04-08T18:24:14.647Z,6.65
2023-04-08T18:27:17.120Z,7.48
2023-04-08T18:30:19.080Z,6.28
2023-04-08T18:33:21.891Z,6.88
2023-04-08T18:36:23.826Z,6.74
2023-04-08T18:39:26.224Z,7.02
2023-04-08T18:42:28.260Z,7.65
2023-04-08T18:45:30.398Z,7.11
2023-04-08T18:48:33.250Z,7.26
2023-04-08T18:51:35.137Z,7.63
2023-04-08T18:54:37.264Z,8.25
2023-04-08T18:57:39.215Z,8.01
2023-04-08T19:00:44.021Z,8.03
2023-04-08T19:03:46.067Z,8.01
2023-04-08T19:06:48.245Z,7.80
2023-04-08T19:09:50.175Z,7.65
2023-04-08T19:12:52.039Z,7.66
2023-04-08T19:15:53.912Z,7.79
2023-04-08T19:18:56.246Z,7.93
2023-04-08T19:21:58.481Z,6.73
2023-04-08T19:25:00.390Z,7.09
2023-04-08T19:28:02.279Z,7.79
2023-04-08T19:31:04.175Z,7.33
2023-04-08T19:34:06.374Z,7.29
2023-04-08T19:37:08.652Z,7.25
2023-04-08T19:40:10.698Z,6.41
2023-04-08T19:43:12.999Z,7.35
2023-04-08T19:46:14.946Z,7.38
2023-04-08T19:49:16.956Z,7.06
2023-04-08T19:52:20.535Z,7.18
2023-04-08T19:55:22.681Z,6.34
2023-04-08T19:58:24.667Z,6.83
2023-04-08T20:01:26.649Z,7.50
2023-04-08T20:04:28.576Z,7.55
2023-04-08T20:07:30.929Z,6.56
2023-04-08T20:10:33.128Z,6.98
2023-04-08T20:13:34.962Z,7.26
2023-04-08T20:16:36.838Z,6.77
2023-04-08T20:19:39.140Z,6.77
2023-04-08T20:22:41.813Z,6.92
2023-04-08T20:25:43.688Z,7.10
2023-04-08T20:28:46.180Z,7.49
2023-04-08T20:31:48.069Z,7.65
2023-04-08T20:34:50.052Z,7.44
2023-04-08T20:37:52.043Z,7.78
2023-04-08T20:40:53.888Z,8.00
2023-04-08T20:43:56.026Z,7.99
2023-04-08T20:46:58.169Z,6.86
2023-04-08T20:50:00.369Z,8.22
2023-04-08T20:53:02.295Z,8.59
2023-04-08T20:56:04.747Z,6.92
2023-04-08T20:59:06.758Z,7.29
2023-04-08T21:02:10.233Z,6.66
2023-04-08T21:05:13.472Z,5.95
2023-04-08T21:08:15.430Z,6.51
2023-04-08T21:11:17.386Z,6.91
2023-04-08T21:14:19.510Z,6.30
2023-04-08T21:17:21.533Z,6.09
2023-04-08T21:20:23.433Z,6.71
2023-04-08T21:23:25.976Z,7.18
2023-04-08T21:26:27.897Z,7.12
2023-04-08T21:29:29.869Z,8.09
2023-04-08T21:32:32.538Z,6.59
2023-04-08T21:35:34.846Z,7.38
2023-04-08T21:38:36.900Z,7.06
2023-04-08T21:41:38.769Z,6.65
2023-04-08T21:44:40.853Z,7.58
2023-04-08T21:47:42.901Z,6.71
2023-04-08T21:50:45.707Z,6.88
2023-04-08T21:53:47.702Z,6.97
2023-04-08T21:56:49.625Z,7.33
2023-04-08T21:59:51.772Z,7.33
2023-04-08T22:02:53.778Z,6.97
2023-04-08T22:05:56.337Z,7.26
2023-04-08T22:08:58.209Z,6.29
2023-04-08T22:12:01.555Z,6.31
2023-04-08T22:15:03.712Z,6.46
2023-04-08T22:18:05.677Z,6.53
2023-04-08T22:21:07.640Z,6.69
2023-04-08T22:24:09.580Z,6.87
2023-04-08T22:27:11.597Z,7.00
2023-04-08T22:30:13.661Z,7.02
2023-04-08T22:33:15.864Z,6.85
2023-04-08T22:36:17.832Z,7.33
2023-04-08T22:39:19.801Z,7.31
2023-04-08T22:42:21.890Z,6.80
2023-04-08T22:45:23.846Z,6.54
2023-04-08T22:48:26.002Z,7.65
2023-04-08T22:51:27.881Z,7.48
2023-04-08T22:54:29.781Z,7.44
2023-04-08T22:57:31.682Z,7.22
2023-04-08T23:00:33.731Z,7.22
2023-04-08T23:03:35.538Z,7.06
2023-04-08T23:06:37.470Z,6.85
2023-04-08T23:09:39.374Z,6.29
2023-04-08T23:12:41.738Z,6.53
2023-04-08T23:15:43.592Z,6.06
2023-04-08T23:18:45.567Z,6.62
2023-04-08T23:21:47.537Z,6.74
2023-04-08T23:24:49.414Z,6.51
2023-04-08T23:27:51.292Z,6.86
2023-04-08T23:30:53.331Z,6.80
2023-04-08T23:33:55.256Z,7.18
2023-04-08T23:36:57.237Z,8.13
2023-04-08T23:39:59.335Z,7.60
2023-04-08T23:43:01.162Z,6.90
2023-04-08T23:46:03.150Z,7.27
2023-04-08T23:49:05.353Z,7.00
2023-04-08T23:52:07.274Z,6.47
2023-04-08T23:55:09.379Z,6.82
2023-04-08T23:58:11.357Z,6.88
